createdAt,value
2022-09-04T00:03:06.492Z,4.4
2022-09-04T00:08:09.067Z,4.2
2022-09-04T00:13:11.336Z,4.5
2022-09-04T00:18:13.856Z,4.5
2022-09-04T00:23:16.439Z,4.4
2022-09-04T00:28:19.989Z,4.7
2022-09-04T00:33:22.855Z,5
2022-09-04T00:38:25.970Z,5.4
2022-09-04T00:43:28.515Z,5.1
2022-09-04T00:48:30.940Z,4.9
2022-09-04T00:53:33.366Z,5.5
2022-09-04T00:58:35.869Z,5.4
2022-09-04T01:03:38.634Z,5.1
2022-09-04T01:08:43.259Z,5.8
2022-09-04T01:13:46.092Z,6.6
2022-09-04T01:18:48.687Z,6.8
2022-09-04T01:23:51.303Z,6.5
2022-09-04T01:28:54.063Z,7.1
2022-09-04T01:33:56.692Z,7.6
2022-09-04T01:38:59.320Z,7.8
2022-09-04T01:44:01.707Z,8.2
2022-09-04T01:49:04.074Z,8.8
2022-09-04T01:54:06.333Z,9.1
2022-09-04T01:59:08.891Z,9.4
2022-09-04T02:04:13.711Z,9.4
2022-09-04T02:09:16.209Z,9.4
2022-09-04T02:14:18.615Z,9.5
2022-09-04T02:19:21.207Z,9.3
2022-09-04T02:24:23.527Z,9.1
2022-09-04T02:29:26.631Z,8.9
2022-09-04T02:34:33.733Z,9.7
2022-09-04T02:39:37.721Z,8.9
2022-09-04T02:44:40.344Z,9.7
2022-09-04T02:49:42.852Z,9.8
2022-09-04T02:54:45.744Z,10
2022-09-04T02:59:48.215Z,10.1
2022-09-04T03:04:50.475Z,10.2
2022-09-04T03:09:55.007Z,10.3
2022-09-04T03:14:57.447Z,10.3
2022-09-04T03:19:59.948Z,10.2
2022-09-04T03:25:03.789Z,10.9
2022-09-04T03:30:06.288Z,11
2022-09-04T03:35:08.700Z,11.5
2022-09-04T03:40:11.637Z,11.5
2022-09-04T03:45:13.986Z,11.5
2022-09-04T03:50:16.327Z,11.7
2022-09-04T03:55:18.830Z,13.5
2022-09-04T04:00:21.127Z,17
2022-09-04T04:05:23.708Z,18
2022-09-04T04:10:26.940Z,19.3
2022-09-04T04:15:29.541Z,16.9
2022-09-04T04:20:32.178Z,15.7
2022-09-04T04:25:34.546Z,14.6
2022-09-04T04:30:37.466Z,14.7
2022-09-04T04:35:40.210Z,14.3
2022-09-04T04:40:43.068Z,13.6
2022-09-04T04:45:45.952Z,18.8
2022-09-04T04:50:48.826Z,20.8
2022-09-04T04:55:51.868Z,8.5
2022-09-04T05:00:54.483Z,7.7
2022-09-04T05:05:57.557Z,7.3
2022-09-04T05:11:00.146Z,7
2022-09-04T05:16:12.484Z,6.8
2022-09-04T05:21:11.900Z,6.7
2022-09-04T05:26:14.414Z,6.4
2022-09-04T05:31:16.910Z,7.1
2022-09-04T05:36:19.924Z,5.8
2022-09-04T05:41:23.852Z,5.6
2022-09-04T05:46:26.322Z,5.2
2022-09-04T05:51:29.204Z,5.1
2022-09-04T05:56:37.185Z,5.1
2022-09-04T06:01:40.046Z,5.3
2022-09-04T06:06:43.049Z,4.7
2022-09-04T06:11:45.545Z,4.7
2022-09-04T06:16:47.902Z,4.1
2022-09-04T06:21:50.236Z,3.7
2022-09-04T06:26:52.816Z,3.8
2022-09-04T06:31:55.073Z,3.7
2022-09-04T06:36:57.389Z,3.3
2022-09-04T06:42:00.201Z,3.6
2022-09-04T06:47:02.969Z,3
2022-09-04T06:52:05.526Z,2.8
2022-09-04T06:57:08.198Z,2.9
2022-09-04T07:02:11.128Z,3.1
2022-09-04T07:07:14.101Z,2.9
2022-09-04T07:12:19.378Z,2.8
2022-09-04T07:17:23.839Z,2.8
2022-09-04T07:22:26.784Z,2.6
2022-09-04T07:27:29.341Z,2.6
2022-09-04T07:32:31.842Z,2.4
2022-09-04T07:37:34.211Z,2
2022-09-04T07:42:36.853Z,2.1
2022-09-04T07:47:39.396Z,2.2
2022-09-04T07:52:42.021Z,1.6
2022-09-04T07:57:44.495Z,1.6
2022-09-04T08:02:46.810Z,1.5
2022-09-04T08:07:49.108Z,1.1
2022-09-04T08:12:51.891Z,1.2
2022-09-04T08:17:56.491Z,1.2
2022-09-04T08:22:59.213Z,1
2022-09-04T08:28:02.184Z,1.1
2022-09-04T08:33:04.492Z,1
2022-09-04T08:38:06.810Z,0.9
2022-09-04T08:43:09.229Z,1.1
2022-09-04T08:48:12.550Z,1
2022-09-04T08:53:17.851Z,0.9
2022-09-04T08:58:20.504Z,1
2022-09-04T09:03:23.280Z,1.3
2022-09-04T09:08:32.079Z,1.1
2022-09-04T09:13:35.237Z,0.9
2022-09-04T09:18:40.447Z,4.9
2022-09-04T09:23:44.453Z,1.1
2022-09-04T09:28:47.041Z,1.2
2022-09-04T09:33:49.459Z,1.1
2022-09-04T09:38:52.089Z,1.1
2022-09-04T09:43:54.648Z,1
2022-09-04T09:48:57.250Z,1.1
2022-09-04T09:54:00.311Z,1.2
2022-09-04T09:59:02.911Z,1
2022-09-04T10:04:05.611Z,1.1
2022-09-04T10:09:10.571Z,0.9
2022-09-04T10:14:13.062Z,1
2022-09-04T10:19:15.575Z,1
2022-09-04T10:24:18.322Z,1.1
2022-09-04T10:29:21.453Z,1.2
2022-09-04T10:34:24.001Z,1.1
2022-09-04T10:39:26.435Z,1.1
2022-09-04T10:44:30.889Z,1.1
2022-09-04T10:49:33.411Z,1.2
2022-09-04T10:54:35.960Z,1.2
2022-09-04T10:59:38.573Z,1.1
2022-09-04T11:04:42.202Z,1.1
2022-09-04T11:09:48.580Z,1.1
2022-09-04T11:14:51.678Z,1.2
2022-09-04T11:19:54.310Z,1.2
2022-09-04T11:24:57.496Z,1.2
2022-09-04T11:30:02.250Z,1.3
2022-09-04T11:35:05.575Z,1.3
2022-09-04T11:40:08.274Z,1.3
2022-09-04T11:45:12.482Z,1.1
2022-09-04T11:50:15.411Z,1.2
2022-09-04T11:55:18.315Z,1.3
2022-09-04T12:00:20.844Z,1.2
2022-09-04T12:05:23.391Z,1.1
2022-09-04T12:10:26.116Z,1.2
2022-09-04T12:15:29.320Z,1.4
2022-09-04T12:20:34.058Z,1.2
2022-09-04T12:25:36.526Z,1.2
2022-09-04T12:30:38.849Z,1.1
2022-09-04T12:35:41.150Z,1.1
2022-09-04T12:40:44.174Z,1.2
2022-09-04T12:45:47.078Z,1.2
2022-09-04T12:50:49.973Z,1.2
2022-09-04T12:55:54.402Z,1.1
2022-09-04T13:00:58.370Z,1.2
2022-09-04T13:05:59.250Z,1
2022-09-04T13:11:03.106Z,1.3
2022-09-04T13:16:09.141Z,1.2
2022-09-04T13:21:13.927Z,1.2
2022-09-04T13:26:19.244Z,1.3
2022-09-04T13:31:22.015Z,1.5
2022-09-04T13:36:24.895Z,1.5
2022-09-04T13:41:31.514Z,1.4
2022-09-04T13:46:34.408Z,1.6
2022-09-04T13:51:37.094Z,1.5
2022-09-04T13:56:40.023Z,1.5
2022-09-04T14:01:42.772Z,1.5
2022-09-04T14:06:45.443Z,1.4
2022-09-04T14:11:48.274Z,1.4
2022-09-04T14:16:50.832Z,1.5
2022-09-04T14:21:54.435Z,1.4
2022-09-04T14:26:57.369Z,1.4
2022-09-04T14:32:01.242Z,1.5
2022-09-04T14:37:04.773Z,1.4
2022-09-04T14:42:07.503Z,1.3
2022-09-04T14:47:10.285Z,1.4
2022-09-04T14:52:13.498Z,16
2022-09-04T14:57:16.146Z,1.6
2022-09-04T15:02:18.542Z,1.5
2022-09-04T15:07:21.900Z,1.5
2022-09-04T15:12:32.972Z,1.4
2022-09-04T15:17:25.848Z,1.4
2022-09-04T15:22:29.779Z,1.5
2022-09-04T15:27:32.598Z,1.5
2022-09-04T15:32:35.226Z,1.6
2022-09-04T15:37:38.180Z,10.6
2022-09-04T15:42:42.544Z,1.8
2022-09-04T15:47:46.403Z,1.7
2022-09-04T15:52:49.119Z,7.8
2022-09-04T15:57:53.321Z,1.8
2022-09-04T16:02:56.333Z,1.7
2022-09-04T16:08:02.918Z,1.6
2022-09-04T16:12:59.388Z,1.8
2022-09-04T16:18:02.273Z,1.7
2022-09-04T16:23:05.168Z,2
2022-09-04T16:28:09.003Z,1.9
2022-09-04T16:33:28.684Z,1.9
2022-09-04T16:38:25.645Z,2.2
2022-09-04T16:43:29.898Z,1.8
2022-09-04T16:48:39.619Z,2.3
2022-09-04T16:53:42.241Z,2.2
2022-09-04T16:58:45.399Z,2.2
2022-09-04T17:03:50.195Z,3.3
2022-09-04T17:08:56.852Z,2.6
2022-09-04T17:14:10.241Z,2.2
2022-09-04T17:19:03.981Z,7.7
2022-09-04T17:41:35.003Z,2.1
2022-09-04T17:48:26.100Z,2.4
2022-09-04T17:53:35.727Z,2.3
2022-09-04T17:58:36.137Z,2.3
2022-09-04T18:04:02.966Z,2.3
2022-09-04T18:08:55.853Z,2.5
2022-09-04T18:13:48.600Z,7
2022-09-04T18:18:51.704Z,3.3
2022-09-04T18:23:54.397Z,2.3
2022-09-04T18:29:33.866Z,2.4
2022-09-04T18:51:12.298Z,3
2022-09-04T18:57:40.614Z,2.8
2022-09-04T19:02:54.874Z,2.5
2022-09-04T19:07:57.480Z,2.4
2022-09-04T19:13:00.027Z,2.5
2022-09-04T19:18:02.504Z,2.6
2022-09-04T19:23:16.519Z,2.5
2022-09-04T19:28:09.903Z,2.5
2022-09-04T19:33:12.585Z,2.5
2022-09-04T19:46:24.569Z,2.4
2022-09-04T19:53:42.592Z,2.9
2022-09-04T19:58:02.820Z,7.3
2022-09-04T20:03:06.285Z,3.8
2022-09-04T20:08:08.887Z,2.7
2022-09-04T20:13:11.355Z,3.9
2022-09-04T20:18:14.004Z,2.8
2022-09-04T20:23:36.481Z,2.8
2022-09-04T20:28:19.042Z,2.8
2022-09-04T20:33:21.686Z,3.1
2022-09-04T20:38:24.906Z,3
2022-09-04T20:43:27.535Z,2.5
2022-09-04T20:53:08.931Z,2.5
2022-09-04T21:03:30.453Z,2.3
2022-09-04T21:09:56.214Z,2.2
2022-09-04T21:14:48.834Z,2.5
2022-09-04T21:19:51.733Z,2.3
2022-09-04T21:24:54.609Z,2.2
2022-09-04T21:29:57.103Z,2.3
2022-09-04T21:35:00.902Z,2.2
2022-09-04T21:40:03.601Z,2.3
2022-09-04T21:45:10.574Z,2.3
2022-09-04T21:50:14.212Z,2.3
2022-09-04T22:02:51.213Z,2.2
2022-09-04T22:13:48.976Z,2.2
2022-09-04T22:20:04.730Z,2.1
2022-09-04T22:25:07.181Z,2.1
2022-09-04T22:30:10.156Z,2.3
2022-09-04T22:35:12.714Z,2.4
2022-09-04T22:40:15.227Z,2.5
2022-09-04T22:45:18.006Z,2.3
2022-09-04T22:50:31.762Z,2.5
2022-09-04T22:56:19.206Z,2.4
2022-09-04T23:00:26.963Z,2.5
2022-09-04T23:05:29.471Z,2.4
2022-09-04T23:14:07.391Z,2.7
2022-09-04T23:15:40.315Z,2.6
2022-09-04T23:26:58.978Z,2.4
2022-09-04T23:33:28.908Z,2.4
2022-09-04T23:38:22.202Z,2.5
2022-09-04T23:43:25.173Z,2.4
2022-09-04T23:48:28.372Z,2.7
2022-09-04T23:53:30.896Z,2.6
2022-09-04T23:58:52.053Z,2.6
